East Hartford, CT

7:28 PM EST on February 22, 2018 (GMT -0500)
Oakdale Farms | | Change Station
Active Advisory: Special Statement Active Notice: Public Information Statement

Elev 62 ft 41.79 °N, 72.61 °W | Updated 8 minutes ago

Overcast
Overcast
33.1 °F
Feels Like 33 °F
N
0.0
Wind Variable Wind from South

Today
High -- | Low -- °F
--% Chance of Precip.
Yesterday
High -- | Low -- °F
Precip. -- in
Pressure 30.65 in
Visibility 10.0 miles
Clouds Scattered Clouds 800 ft
Overcast 8500 ft
Windchill 33 °F
Dew Point 33 °F
Humidity 99%
Rainfall 0.02 in
Snow Depth Not available.
6:36 AM 5:32 PM
Waxing Crescent, 46% visible
SPECI KHFD 230024Z 35003KT 10SM SCT008 OVC085 01/00 A3065 RMK AO2 T00110000
Pressure 30.65 in
Visibility 10.0 miles
Clouds Scattered Clouds 800 ft
Overcast 8500 ft
Windchill 33 °F
Dew Point 33 °F
Humidity 99%
Rainfall 0.02 in
Snow Depth Not available.
6:36 AM 5:32 PM
Waxing Crescent, 46% visible
SPECI KHFD 230024Z 35003KT 10SM SCT008 OVC085 01/00 A3065 RMK AO2 T00110000

Get Your Daily Forecast Email!

Thanks for signing up!

Be on the lookout for a verification email in your inbox.

You'll start receiving severe weather alerts in your inbox..

×

10-Day Weather Forecast

Almanac

Astronomy

Feb. 22, 2018 Rise Set
Actual Time
Civil Twilight
Nautical Twilight
Astronomical Twilight
Moon
Length of Visible Light
Length of Day
Tomorrow will be .
, % of the Moon is Illuminated

Today's Extremes

State Highs State Lows

Community

WunderPhotos

Category 6

Welcome to Category 6. This is the collective home for Weather Underground's featured writeups by Dr. Jeff Masters (right), Bob Henson (left), Chris Burt, and other regular contributors.

Nearby

Air Quality

  Air Quality AQ Index Pollutant
Not available.

Snow Depth

Station Depth Elevation

Earthquake Activity

City Distance Mag. Time & Date
Minimum magnitude displayed is 2.5.

Coastal Water Temperatures

Place Temperature

Stations

Nearby Weather Stations

Station Location Temp. Windchill Dew Point Humidity Wind Precip. Elev Updated Type
                   

Watches & Warnings

Special Statement
Issued: 7:04 PM EST Feb. 22, 2018 – National Weather Service

... Areas of black ice tonight and into early tomorrow morning...

Wintry precipitation is coming to an end across the region.
However, temperatures will continue to fall below freezing during
the overnight hours. Allowing for any standing water or slush to
freeze. Thus icy spots are possible tonight especially across any
untreated roadways and sidewalks.

Motorists should use caution if traveling tonight or early Friday
morning.


Dunten